createdAt,value
2023-05-12T00:01:02.129Z,6.9
2023-05-12T00:02:10.620Z,6.9
2023-05-12T00:03:19.056Z,6.9
2023-05-12T00:04:27.312Z,6.9
2023-05-12T00:05:35.799Z,6.9
2023-05-12T00:06:44.123Z,6.9
2023-05-12T00:07:52.458Z,6.9
2023-05-12T00:09:01.014Z,7
2023-05-12T00:10:09.325Z,7
2023-05-12T00:11:17.630Z,7
2023-05-12T00:12:26.170Z,7.2
2023-05-12T00:13:34.534Z,7.2
2023-05-12T00:14:42.817Z,7.2
2023-05-12T00:15:51.387Z,7.3
2023-05-12T00:16:59.691Z,7.3
2023-05-12T00:18:08.066Z,7.3
2023-05-12T00:19:16.534Z,10.4
2023-05-12T00:20:25.169Z,10.4
2023-05-12T00:21:33.492Z,10.4
2023-05-12T00:22:42.037Z,9.9
2023-05-12T00:23:50.345Z,9.9
2023-05-12T00:24:58.657Z,9.9
2023-05-12T00:26:07.184Z,8.7
2023-05-12T00:27:15.526Z,8.7
2023-05-12T00:28:23.832Z,8.7
2023-05-12T00:29:32.411Z,9.4
2023-05-12T00:30:40.672Z,9.4
2023-05-12T00:31:49.034Z,9.4
2023-05-12T00:32:57.582Z,11.7
2023-05-12T00:34:05.864Z,11.7
2023-05-12T00:35:14.186Z,11.7
2023-05-12T00:36:22.713Z,9.6
2023-05-12T00:37:31.032Z,9.6
2023-05-12T00:38:39.357Z,9.6
2023-05-12T00:39:47.886Z,12.9
2023-05-12T00:40:56.217Z,12.9
2023-05-12T00:42:04.576Z,12.9
2023-05-12T00:43:13.079Z,11.2
2023-05-12T00:44:21.393Z,11.2
2023-05-12T00:45:29.821Z,11.2
2023-05-12T00:46:38.263Z,11.2
2023-05-12T00:47:46.644Z,11.2
2023-05-12T00:48:54.920Z,11.2
2023-05-12T00:50:03.431Z,9
2023-05-12T00:51:11.759Z,9
2023-05-12T00:52:20.089Z,9
2023-05-12T00:53:35.086Z,9.3
2023-05-12T00:54:36.927Z,9.3
2023-05-12T00:55:45.276Z,9.3
2023-05-12T00:56:53.813Z,9.4
2023-05-12T00:58:02.149Z,9.4
2023-05-12T00:59:10.452Z,9.4
2023-05-12T01:00:19.181Z,9.8
2023-05-12T01:01:27.330Z,9.8
2023-05-12T01:02:35.672Z,9.8
2023-05-12T01:03:44.156Z,10.7
2023-05-12T01:04:52.504Z,10.7
2023-05-12T01:06:00.794Z,10.7
2023-05-12T01:07:09.352Z,9.8
2023-05-12T01:08:17.669Z,9.8
2023-05-12T01:09:26.016Z,9.8
2023-05-12T01:10:34.532Z,10.8
2023-05-12T01:11:42.847Z,10.8
2023-05-12T01:12:51.161Z,10.8
2023-05-12T01:13:59.700Z,18.299999
2023-05-12T01:15:08.024Z,18.299999
2023-05-12T01:16:16.354Z,18.299999
2023-05-12T01:17:24.931Z,10.5
2023-05-12T01:18:33.272Z,10.5
2023-05-12T01:19:41.519Z,10.5
2023-05-12T01:20:50.084Z,10.2
2023-05-12T01:21:58.380Z,10.2
2023-05-12T01:23:06.708Z,10.2
2023-05-12T01:24:15.272Z,9
2023-05-12T01:25:23.587Z,9
2023-05-12T01:26:31.885Z,9
2023-05-12T01:27:40.417Z,10.9
2023-05-12T01:28:48.768Z,10.9
2023-05-12T01:29:57.084Z,10.9
2023-05-12T01:31:05.640Z,10.1
2023-05-12T01:32:13.952Z,10.1
2023-05-12T01:33:22.260Z,10.1
2023-05-12T01:34:30.802Z,11.8
2023-05-12T01:35:39.110Z,11.8
2023-05-12T01:36:47.464Z,11.8
2023-05-12T01:37:55.959Z,9.5
2023-05-12T01:39:04.270Z,9.5
2023-05-12T01:40:12.593Z,9.5
2023-05-12T01:41:21.122Z,11.1
2023-05-12T01:42:29.448Z,11.1
2023-05-12T01:43:37.782Z,11.1
2023-05-12T01:44:46.302Z,11
2023-05-12T01:45:54.614Z,11
2023-05-12T01:47:02.936Z,11
2023-05-12T01:48:11.460Z,10.4
2023-05-12T01:49:19.779Z,10.4
2023-05-12T01:50:28.088Z,10.4
2023-05-12T01:51:36.630Z,12.6
2023-05-12T01:52:44.976Z,12.6
2023-05-12T01:53:53.248Z,12.6
2023-05-12T01:55:01.781Z,11.9
2023-05-12T01:56:10.109Z,11.9
2023-05-12T01:57:18.419Z,11.9
2023-05-12T01:58:26.942Z,11.8
2023-05-12T01:59:35.255Z,11.8
2023-05-12T02:00:43.592Z,11.8
2023-05-12T02:01:52.173Z,12.9
2023-05-12T02:03:00.568Z,12.9
2023-05-12T02:04:08.909Z,12.9
2023-05-12T02:05:17.309Z,12.1
2023-05-12T02:06:25.638Z,12.1
2023-05-12T02:07:33.958Z,12.1
2023-05-12T02:08:42.508Z,13.2
2023-05-12T02:09:50.803Z,13.2
2023-05-12T02:10:59.160Z,13.2
2023-05-12T02:12:07.660Z,12.5
2023-05-12T02:13:15.975Z,12.5
2023-05-12T02:14:24.298Z,12.5
2023-05-12T02:15:32.838Z,14
2023-05-12T02:19:01.177Z,14
2023-05-12T02:20:09.661Z,11.5
2023-05-12T02:21:17.973Z,11.5
2023-05-12T02:22:26.291Z,11.5
2023-05-12T02:23:34.813Z,13.1
2023-05-12T02:24:43.150Z,13.1
2023-05-12T02:25:51.442Z,13.1
2023-05-12T02:26:59.970Z,10.6
2023-05-12T02:28:08.278Z,10.6
2023-05-12T02:29:16.617Z,10.6
2023-05-12T02:30:25.126Z,10
2023-05-12T02:31:33.453Z,10
2023-05-12T02:32:41.792Z,10
2023-05-12T02:33:50.307Z,9
2023-05-12T02:34:58.626Z,9
2023-05-12T02:36:06.960Z,9
2023-05-12T02:37:15.477Z,8.9
2023-05-12T02:38:23.849Z,8.9
2023-05-12T02:39:32.173Z,8.9
2023-05-12T02:40:40.755Z,9.5
2023-05-12T02:41:49.008Z,9.5
2023-05-12T02:42:57.313Z,9.5
2023-05-12T02:44:05.839Z,9.8
2023-05-12T02:45:14.160Z,9.8
2023-05-12T02:46:22.519Z,9.8
2023-05-12T02:47:31.021Z,9.3
2023-05-12T02:48:39.315Z,9.3
2023-05-12T02:49:47.627Z,9.3
2023-05-12T02:50:56.172Z,11.1
2023-05-12T02:52:04.490Z,11.1
2023-05-12T02:53:12.826Z,11.1
2023-05-12T02:54:21.339Z,9.1
2023-05-12T02:55:29.663Z,9.1
2023-05-12T02:56:38.002Z,9.1
2023-05-12T02:57:46.511Z,10.9
2023-05-12T02:58:54.821Z,10.9
2023-05-12T03:00:03.141Z,10.9
2023-05-12T03:01:11.947Z,10
2023-05-12T03:02:19.981Z,10
2023-05-12T03:03:28.327Z,10
2023-05-12T03:04:36.825Z,8.9
2023-05-12T03:05:45.134Z,8.9
2023-05-12T03:06:53.458Z,8.9
2023-05-12T03:08:01.985Z,11.2
2023-05-12T03:09:10.302Z,11.2
2023-05-12T03:10:18.993Z,11.2
2023-05-12T03:11:27.144Z,10.2
2023-05-12T03:12:35.500Z,10.2
2023-05-12T03:13:43.792Z,10.2
2023-05-12T03:14:52.315Z,9.5
2023-05-12T03:16:00.639Z,9.5
2023-05-12T03:17:08.984Z,9.5
2023-05-12T03:18:17.489Z,9.3
2023-05-12T03:19:25.797Z,9.3
2023-05-12T03:20:34.110Z,9.3
2023-05-12T03:21:42.652Z,11
2023-05-12T03:22:50.986Z,11
2023-05-12T03:23:59.284Z,11
2023-05-12T03:25:07.814Z,11
2023-05-12T03:26:16.155Z,11
2023-05-12T03:27:24.481Z,11
2023-05-12T03:28:33.027Z,10.1
2023-05-12T03:29:41.339Z,10.1
2023-05-12T03:30:49.655Z,10.1
2023-05-12T03:31:58.185Z,9.1
2023-05-12T03:33:06.503Z,9.1
2023-05-12T03:34:14.811Z,9.1
2023-05-12T03:35:23.338Z,8.6
2023-05-12T03:36:31.656Z,8.6
2023-05-12T03:37:39.963Z,8.6
2023-05-12T03:38:48.487Z,9.1
2023-05-12T03:39:56.814Z,9.1
2023-05-12T03:41:05.126Z,9.1
2023-05-12T03:42:13.665Z,9.3
2023-05-12T03:43:21.986Z,9.3
2023-05-12T03:44:30.345Z,9.3
2023-05-12T03:45:38.856Z,9.3
2023-05-12T03:46:47.185Z,9.3
2023-05-12T03:47:55.506Z,9.3
2023-05-12T03:49:04.039Z,8
2023-05-12T03:50:12.357Z,8
2023-05-12T03:51:20.678Z,8
2023-05-12T03:52:29.218Z,8.9
2023-05-12T03:53:37.542Z,8.9
2023-05-12T03:54:45.877Z,8.9
2023-05-12T03:55:54.395Z,8.4
2023-05-12T03:57:02.720Z,8.4
2023-05-12T03:58:11.053Z,8.4
2023-05-12T03:59:19.560Z,8.8
2023-05-12T04:00:27.899Z,8.8
2023-05-12T04:01:36.229Z,8.8
2023-05-12T04:02:44.787Z,9.4
2023-05-12T04:03:53.114Z,9.4
2023-05-12T04:05:01.365Z,9.4
2023-05-12T04:06:09.892Z,8.2
2023-05-12T04:07:18.193Z,8.2
2023-05-12T04:08:26.516Z,8.2
2023-05-12T04:09:35.033Z,7.9
2023-05-12T04:10:43.338Z,7.9
2023-05-12T04:11:51.660Z,7.9
2023-05-12T04:13:00.214Z,8.7
2023-05-12T04:14:08.514Z,8.7
2023-05-12T04:15:16.822Z,8.7
2023-05-12T04:16:25.421Z,6.9
2023-05-12T04:17:33.692Z,6.9
2023-05-12T04:18:42.016Z,6.9
2023-05-12T04:19:50.507Z,7.9
2023-05-12T04:20:58.822Z,7.9
2023-05-12T04:22:07.147Z,7.9
2023-05-12T04:23:15.673Z,8.2
2023-05-12T04:24:23.984Z,8.2
2023-05-12T04:25:32.301Z,8.2
2023-05-12T04:26:40.838Z,7.5
2023-05-12T04:27:49.155Z,7.5
2023-05-12T04:28:57.500Z,7.5
2023-05-12T04:30:06.019Z,8.8
2023-05-12T04:31:14.339Z,8.8
2023-05-12T04:32:22.697Z,8.8
2023-05-12T04:33:31.221Z,9.9
2023-05-12T04:34:39.524Z,9.9
2023-05-12T04:35:47.857Z,9.9
2023-05-12T04:36:56.385Z,8.2
2023-05-12T04:38:04.702Z,8.2
2023-05-12T04:39:13.055Z,8.2
2023-05-12T04:40:21.766Z,10.1
2023-05-12T04:41:29.905Z,10.1
2023-05-12T04:42:38.221Z,10.1
2023-05-12T04:44:55.058Z,10.9
2023-05-12T04:46:03.385Z,10.9
2023-05-12T04:47:11.903Z,8.2
2023-05-12T04:48:20.253Z,8.2
2023-05-12T04:49:28.551Z,8.2
2023-05-12T04:50:37.085Z,8.9
2023-05-12T04:51:45.427Z,8.9
2023-05-12T04:52:53.754Z,8.9
2023-05-12T04:54:02.283Z,7.5
2023-05-12T04:55:10.616Z,7.5
2023-05-12T04:56:18.944Z,7.5
2023-05-12T04:57:27.477Z,7.5
2023-05-12T04:58:35.800Z,7.5
2023-05-12T04:59:44.106Z,7.5
2023-05-12T05:00:52.659Z,6.1
2023-05-12T05:02:00.982Z,6.1
2023-05-12T05:03:09.402Z,6.1
2023-05-12T05:04:17.857Z,6.4
2023-05-12T05:05:26.168Z,6.4
2023-05-12T05:06:34.499Z,6.4
2023-05-12T05:07:43.020Z,6.3
2023-05-12T05:08:51.350Z,6.3
2023-05-12T05:09:59.690Z,6.3
2023-05-12T05:11:08.210Z,7.6
2023-05-12T05:12:16.526Z,7.6
2023-05-12T05:13:24.855Z,7.6
2023-05-12T05:14:33.416Z,7.3
2023-05-12T05:15:41.757Z,7.3
2023-05-12T05:16:50.077Z,7.3
2023-05-12T05:18:00.703Z,7.3
2023-05-12T05:19:15.380Z,7.3
2023-05-12T05:20:15.565Z,7.3
2023-05-12T05:21:23.767Z,7.3
2023-05-12T05:22:32.077Z,7.3
2023-05-12T05:23:40.408Z,7.3
2023-05-12T05:24:48.954Z,8.7
2023-05-12T05:25:57.248Z,8.7
2023-05-12T05:27:05.564Z,8.7
2023-05-12T05:28:14.129Z,7.3
2023-05-12T05:29:22.460Z,7.3
2023-05-12T05:30:30.768Z,7.3
2023-05-12T05:31:39.389Z,8.9
2023-05-12T05:32:47.631Z,8.9
2023-05-12T05:33:56.224Z,8.9
2023-05-12T05:35:04.723Z,7.6
2023-05-12T05:36:13.078Z,7.6
2023-05-12T05:37:21.390Z,7.6
2023-05-12T05:38:29.943Z,7
2023-05-12T05:39:38.270Z,7
2023-05-12T05:40:53.426Z,7
2023-05-12T05:41:55.121Z,7.5
2023-05-12T05:43:03.455Z,7.5
2023-05-12T05:44:11.769Z,7.5
2023-05-12T05:45:20.369Z,8.3
2023-05-12T05:46:28.671Z,8.3
2023-05-12T05:47:37.002Z,8.3
2023-05-12T05:48:45.524Z,8.7
2023-05-12T05:49:53.859Z,8.7
2023-05-12T05:51:02.184Z,8.7
2023-05-12T05:52:10.790Z,7.9
2023-05-12T05:53:19.531Z,7.9
2023-05-12T05:54:27.367Z,7.9
2023-05-12T05:55:35.877Z,6.8
2023-05-12T05:56:44.226Z,6.8
2023-05-12T05:57:52.545Z,6.8
2023-05-12T05:59:01.068Z,8.2
2023-05-12T06:00:09.397Z,8.2
2023-05-12T06:01:17.740Z,8.2
2023-05-12T06:02:26.364Z,7.1
2023-05-12T06:03:34.623Z,7.1
2023-05-12T06:04:42.901Z,7.1
2023-05-12T06:05:51.449Z,7.7
2023-05-12T06:06:59.782Z,7.7
2023-05-12T06:08:08.129Z,7.7
2023-05-12T06:09:16.650Z,7.8
2023-05-12T06:10:24.988Z,7.8
2023-05-12T06:11:33.308Z,7.8
2023-05-12T06:12:41.846Z,7.1
2023-05-12T06:13:50.181Z,7.1
2023-05-12T06:14:58.507Z,7.1
2023-05-12T06:16:07.043Z,8.7
2023-05-12T06:17:15.361Z,8.7
2023-05-12T06:18:23.691Z,8.7
2023-05-12T06:19:32.222Z,6.9
2023-05-12T06:20:40.538Z,6.9
2023-05-12T06:21:48.879Z,6.9
2023-05-12T06:22:57.406Z,8.5
2023-05-12T06:24:05.810Z,8.5
2023-05-12T06:25:14.058Z,8.5
2023-05-12T06:26:22.585Z,8.2
2023-05-12T06:27:30.908Z,8.2
2023-05-12T06:28:39.227Z,8.2
2023-05-12T06:29:47.763Z,8.2
2023-05-12T06:30:56.099Z,8.2
2023-05-12T06:32:04.453Z,8.2
2023-05-12T06:33:12.973Z,9.7
2023-05-12T06:34:21.310Z,9.7
2023-05-12T06:35:29.634Z,9.7
2023-05-12T06:36:38.163Z,8.8
2023-05-12T06:37:46.500Z,8.8
2023-05-12T06:38:54.832Z,8.8
2023-05-12T06:40:03.578Z,9.8
2023-05-12T06:41:11.692Z,9.8
2023-05-12T06:42:20.006Z,9.8
2023-05-12T06:43:28.549Z,8.5
2023-05-12T06:44:36.875Z,8.5
2023-05-12T06:45:45.203Z,8.5
2023-05-12T06:46:53.728Z,10.6
2023-05-12T06:48:02.102Z,10.6
2023-05-12T06:49:10.400Z,10.6
2023-05-12T06:50:18.958Z,10.5
2023-05-12T06:51:27.282Z,10.5
2023-05-12T06:52:35.610Z,10.5
2023-05-12T06:53:44.138Z,9.3
2023-05-12T06:54:52.461Z,9.3
2023-05-12T06:56:00.817Z,9.3
2023-05-12T06:57:09.330Z,11.7
2023-05-12T06:58:17.662Z,11.7
2023-05-12T06:59:25.981Z,11.7
2023-05-12T07:00:34.512Z,11.7
2023-05-12T07:01:42.891Z,11.7
2023-05-12T07:02:51.209Z,11.7
2023-05-12T07:03:59.702Z,11.6
2023-05-12T07:05:08.022Z,11.6
2023-05-12T07:06:16.369Z,11.6
2023-05-12T07:07:24.873Z,10.7
2023-05-12T07:08:33.190Z,10.7
2023-05-12T07:09:41.531Z,10.7
2023-05-12T07:10:50.044Z,9.9
2023-05-12T07:11:58.406Z,9.9
2023-05-12T07:13:06.694Z,9.9
2023-05-12T07:14:15.225Z,9.4
2023-05-12T07:15:23.649Z,9.4
2023-05-12T07:16:31.930Z,9.4
2023-05-12T07:17:40.515Z,10.4
2023-05-12T07:18:48.820Z,10.4
2023-05-12T07:19:57.118Z,10.4
2023-05-12T07:21:05.660Z,9.3
2023-05-12T07:22:14.003Z,9.3
2023-05-12T07:23:22.318Z,9.3
2023-05-12T07:24:30.840Z,8.9
2023-05-12T07:25:39.247Z,8.9
2023-05-12T07:26:47.507Z,8.9
2023-05-12T07:27:56.085Z,9
2023-05-12T07:29:04.384Z,9
2023-05-12T07:30:12.736Z,9
2023-05-12T07:31:21.282Z,9.6
2023-05-12T07:32:29.615Z,9.6
2023-05-12T07:33:37.925Z,9.6
2023-05-12T07:34:46.450Z,9.9
2023-05-12T07:35:54.771Z,9.9
2023-05-12T07:37:03.097Z,9.9
2023-05-12T07:38:11.636Z,9.2
2023-05-12T07:39:19.944Z,9.2
2023-05-12T07:40:28.263Z,9.2
2023-05-12T07:41:36.795Z,8.8
2023-05-12T07:42:45.113Z,8.8
2023-05-12T07:43:53.450Z,8.8
2023-05-12T07:45:01.953Z,8.4
2023-05-12T07:46:10.270Z,8.4
2023-05-12T07:47:18.592Z,8.4
2023-05-12T07:48:27.116Z,8.2
2023-05-12T07:49:36.892Z,8.2
2023-05-12T07:50:45.250Z,8.2
2023-05-12T07:51:53.765Z,8.8
2023-05-12T07:53:02.089Z,8.8
2023-05-12T07:54:10.431Z,8.8
2023-05-12T07:55:19.189Z,7.7
2023-05-12T07:56:27.267Z,7.7
2023-05-12T07:57:35.582Z,7.7
2023-05-12T07:58:44.943Z,8.6
2023-05-12T07:59:52.490Z,8.6
2023-05-12T08:01:00.753Z,8.6
2023-05-12T08:02:09.283Z,7.9
2023-05-12T08:03:17.674Z,7.9
2023-05-12T08:04:25.978Z,7.9
2023-05-12T08:05:34.472Z,7.4
2023-05-12T08:06:42.782Z,7.4
2023-05-12T08:07:51.133Z,7.4
2023-05-12T08:08:59.660Z,7.3
2023-05-12T08:10:07.987Z,7.3
2023-05-12T08:11:16.292Z,7.3
2023-05-12T08:12:24.838Z,7.5
2023-05-12T08:13:33.172Z,7.5
2023-05-12T08:14:41.498Z,7.5
2023-05-12T08:15:50.037Z,7
2023-05-12T08:16:58.358Z,7
2023-05-12T08:18:06.737Z,7
2023-05-12T08:19:15.231Z,6.9
2023-05-12T08:20:23.561Z,6.9
2023-05-12T08:21:31.857Z,6.9
2023-05-12T08:22:40.381Z,7
2023-05-12T08:23:48.711Z,7
2023-05-12T08:24:57.030Z,7
2023-05-12T08:26:05.546Z,7.8
2023-05-12T08:27:14.723Z,7.8
2023-05-12T08:28:23.053Z,7.8
2023-05-12T08:29:31.586Z,9.2
2023-05-12T08:30:39.915Z,9.2
2023-05-12T08:31:48.483Z,9.2
2023-05-12T08:32:56.810Z,8.5
2023-05-12T08:34:10.135Z,8.5
2023-05-12T08:35:13.553Z,8.5
2023-05-12T08:36:21.941Z,7.6
2023-05-12T08:37:31.368Z,7.6
2023-05-12T08:38:38.573Z,7.6
2023-05-12T08:39:47.094Z,6
2023-05-12T08:40:55.419Z,6
2023-05-12T08:42:03.753Z,6
2023-05-12T08:43:12.307Z,4.9
2023-05-12T08:44:20.611Z,4.9
2023-05-12T08:45:28.937Z,4.9
2023-05-12T08:46:37.537Z,5.6
2023-05-12T08:47:46.124Z,5.6
2023-05-12T08:48:54.136Z,5.6
2023-05-12T08:50:02.835Z,6.3
2023-05-12T08:51:11.168Z,6.3
2023-05-12T08:52:19.478Z,6.3
2023-05-12T08:53:28.052Z,5.4
2023-05-12T08:54:42.700Z,5.4
2023-05-12T08:55:54.347Z,5.4
2023-05-12T08:58:01.528Z,5.1
2023-05-12T08:59:09.858Z,5.1
2023-05-12T09:00:18.499Z,5.9
2023-05-12T09:01:26.715Z,5.9
2023-05-12T09:02:44.931Z,5.9
2023-05-12T09:03:43.814Z,6.9
2023-05-12T09:04:51.930Z,6.9
2023-05-12T09:06:00.194Z,6.9
2023-05-12T09:07:08.726Z,5.4
2023-05-12T09:08:17.065Z,5.4
2023-05-12T09:09:25.385Z,5.4
2023-05-12T09:10:35.391Z,5.6
2023-05-12T09:11:42.241Z,5.6
2023-05-12T09:12:50.589Z,5.6
2023-05-12T09:13:59.102Z,6.5
2023-05-12T09:15:07.460Z,6.5
2023-05-12T09:16:15.789Z,6.5
2023-05-12T09:17:24.330Z,7
2023-05-12T09:18:32.635Z,7
2023-05-12T09:19:41.165Z,7
2023-05-12T09:20:49.479Z,4.9
2023-05-12T09:21:57.803Z,4.9
2023-05-12T09:23:06.120Z,4.9
2023-05-12T09:24:14.683Z,5.6
2023-05-12T09:25:23.011Z,5.6
2023-05-12T09:26:31.309Z,5.6
2023-05-12T09:27:39.881Z,6.2
2023-05-12T09:28:48.212Z,6.2
2023-05-12T09:29:59.447Z,6.2
2023-05-12T09:31:05.088Z,5.2
2023-05-12T09:32:13.402Z,5.2
2023-05-12T09:33:21.720Z,5.2
2023-05-12T09:34:30.245Z,6.1
2023-05-12T09:35:38.632Z,6.1
2023-05-12T09:36:46.922Z,6.1
2023-05-12T09:37:55.465Z,5.3
2023-05-12T09:39:03.790Z,5.3
2023-05-12T09:40:12.124Z,5.3
2023-05-12T09:41:20.656Z,6.5
2023-05-12T09:42:28.973Z,6.5
2023-05-12T09:43:37.553Z,6.5
2023-05-12T09:44:46.134Z,8
2023-05-12T09:45:54.487Z,8
2023-05-12T09:47:02.790Z,8
2023-05-12T09:48:11.318Z,5.5
2023-05-12T09:49:19.646Z,5.5
2023-05-12T09:50:30.663Z,5.5
2023-05-12T09:51:36.574Z,6.9
2023-05-12T09:52:45.092Z,6.9
2023-05-12T09:53:53.186Z,6.9
2023-05-12T09:55:01.716Z,5.8
2023-05-12T09:56:10.055Z,5.8
2023-05-12T09:57:18.398Z,5.8
2023-05-12T09:58:26.936Z,5.7
2023-05-12T09:59:35.301Z,5.7
2023-05-12T10:01:52.157Z,5.6
2023-05-12T10:03:00.487Z,5.6
2023-05-12T10:04:08.873Z,5.6
2023-05-12T10:05:17.310Z,8.1
2023-05-12T10:06:25.664Z,8.1
2023-05-12T10:07:34.056Z,8.1
2023-05-12T10:08:43.138Z,7.2
2023-05-12T10:09:51.465Z,7.2
2023-05-12T10:10:59.787Z,7.2
2023-05-12T10:12:08.320Z,6.2
2023-05-12T10:13:16.663Z,6.2
2023-05-12T10:14:25.005Z,6.2
2023-05-12T10:15:33.561Z,5.5
2023-05-12T10:16:42.006Z,5.5
2023-05-12T10:17:52.223Z,5.5
2023-05-12T10:18:58.919Z,5.2
2023-05-12T10:20:07.162Z,5.2
2023-05-12T10:21:15.497Z,5.2
2023-05-12T10:22:24.046Z,5.9
2023-05-12T10:23:32.401Z,5.9
2023-05-12T10:24:40.701Z,5.9
2023-05-12T10:25:49.239Z,5.7
2023-05-12T10:26:57.577Z,5.7
2023-05-12T10:28:05.901Z,5.7
2023-05-12T10:29:14.447Z,6.4
2023-05-12T10:30:22.768Z,6.4
2023-05-12T10:31:31.151Z,6.4
2023-05-12T10:32:39.669Z,6.4
2023-05-12T10:33:47.969Z,6.4
2023-05-12T10:34:56.342Z,6.4
2023-05-12T10:36:05.646Z,5.4
2023-05-12T10:37:13.990Z,5.4
2023-05-12T10:38:22.326Z,5.4
2023-05-12T10:39:30.884Z,6.4
2023-05-12T10:40:39.172Z,6.4
2023-05-12T10:41:47.495Z,6.4
2023-05-12T10:42:56.036Z,5.8
2023-05-12T10:44:04.372Z,5.8
2023-05-12T10:45:12.719Z,5.8
2023-05-12T10:46:21.301Z,5.1
2023-05-12T10:47:29.702Z,5.1
2023-05-12T10:48:37.909Z,5.1
2023-05-12T10:49:46.482Z,4.9
2023-05-12T10:50:54.818Z,4.9
2023-05-12T10:52:03.136Z,4.9
2023-05-12T10:53:11.660Z,6.1
2023-05-12T10:54:20.102Z,6.1
2023-05-12T10:55:28.575Z,6.1
2023-05-12T10:56:37.121Z,6.5
2023-05-12T10:57:46.147Z,6.5
2023-05-12T10:58:54.451Z,6.5
2023-05-12T11:00:03.743Z,5.5
2023-05-12T11:01:11.841Z,5.5
2023-05-12T11:02:19.925Z,5.5
2023-05-12T11:03:29.009Z,6.3
2023-05-12T11:04:36.477Z,6.3
2023-05-12T11:05:44.718Z,6.3
2023-05-12T11:06:53.281Z,6.5
2023-05-12T11:08:02.794Z,6.5
2023-05-12T11:09:11.063Z,6.5
2023-05-12T11:10:19.602Z,6.3
2023-05-12T11:11:27.842Z,6.3
2023-05-12T11:12:36.170Z,6.3
2023-05-12T11:13:44.456Z,6.4
2023-05-12T11:14:52.792Z,6.4
2023-05-12T11:16:01.184Z,6.4
2023-05-12T11:17:09.654Z,6.9
2023-05-12T11:18:18.037Z,6.9
2023-05-12T11:19:26.347Z,6.9
2023-05-12T11:20:34.930Z,5.2
2023-05-12T11:21:43.259Z,5.2
2023-05-12T11:22:51.599Z,5.2
2023-05-12T11:24:00.154Z,5.9
2023-05-12T11:25:08.529Z,5.9
2023-05-12T11:26:16.824Z,5.9
2023-05-12T11:27:25.500Z,6.7
2023-05-12T11:28:33.694Z,6.7
2023-05-12T11:29:42.054Z,6.7
2023-05-12T11:30:51.980Z,5.4
2023-05-12T11:31:58.961Z,5.4
2023-05-12T11:33:07.270Z,5.4
2023-05-12T11:34:15.806Z,4.8
2023-05-12T11:35:24.196Z,4.8
2023-05-12T11:36:32.469Z,4.8
2023-05-12T11:37:41.079Z,7.2
2023-05-12T11:38:49.386Z,7.2
2023-05-12T11:39:57.716Z,7.2
2023-05-12T11:41:06.299Z,6.1
2023-05-12T11:42:15.772Z,6.1
2023-05-12T11:43:23.042Z,6.1
2023-05-12T11:44:31.517Z,5.3
2023-05-12T11:45:39.870Z,5.3
2023-05-12T11:46:48.194Z,5.3
2023-05-12T11:47:58.068Z,7.4
2023-05-12T11:49:05.053Z,7.4
2023-05-12T11:50:13.416Z,7.4
2023-05-12T11:51:21.940Z,5.9
2023-05-12T11:52:30.262Z,5.9
2023-05-12T11:53:38.630Z,5.9
2023-05-12T11:54:47.166Z,5.6
2023-05-12T11:55:55.509Z,5.6
2023-05-12T11:57:03.852Z,5.6
2023-05-12T11:58:12.662Z,4.9
2023-05-12T11:59:21.055Z,4.9
2023-05-12T12:00:29.380Z,4.9
2023-05-12T12:01:37.936Z,6.1
2023-05-12T12:02:46.306Z,6.1
2023-05-12T12:03:54.653Z,6.1
2023-05-12T12:05:03.153Z,6.9
2023-05-12T12:06:11.501Z,6.9
2023-05-12T12:07:19.834Z,6.9
2023-05-12T12:08:28.397Z,4.8
2023-05-12T12:09:36.744Z,4.8
2023-05-12T12:10:45.090Z,4.8
2023-05-12T12:11:53.644Z,6
2023-05-12T12:13:01.955Z,6
2023-05-12T12:14:10.299Z,6
2023-05-12T12:15:18.988Z,6.2
2023-05-12T12:16:27.192Z,6.2
2023-05-12T12:17:35.543Z,6.2
2023-05-12T12:18:44.087Z,4.5
2023-05-12T12:19:52.419Z,4.5
2023-05-12T12:21:00.730Z,4.5
2023-05-12T12:22:09.275Z,6.3
2023-05-12T12:23:17.599Z,6.3
2023-05-12T12:24:25.952Z,6.3
2023-05-12T12:25:34.524Z,6.7
2023-05-12T12:26:42.832Z,6.7
2023-05-12T12:27:51.205Z,6.7
2023-05-12T12:28:59.754Z,5.8
2023-05-12T12:30:08.076Z,5.8
2023-05-12T12:31:16.603Z,5.8
2023-05-12T12:32:25.029Z,3.8
2023-05-12T12:33:33.309Z,3.8
2023-05-12T12:34:41.647Z,3.8
2023-05-12T12:35:50.193Z,5.9
2023-05-12T12:36:58.506Z,5.9
2023-05-12T12:38:06.849Z,5.9
2023-05-12T12:39:16.032Z,6.1
2023-05-12T12:40:23.712Z,6.1
2023-05-12T12:41:32.038Z,6.1
2023-05-12T12:42:40.605Z,6
2023-05-12T12:43:48.975Z,6
2023-05-12T12:44:57.295Z,6
2023-05-12T12:46:05.870Z,5.9
2023-05-12T12:47:14.290Z,5.9
2023-05-12T12:48:22.522Z,5.9
2023-05-12T12:49:31.060Z,7
2023-05-12T12:50:39.413Z,7
2023-05-12T12:51:47.743Z,7
2023-05-12T12:52:56.303Z,6.2
2023-05-12T12:54:04.634Z,6.2
2023-05-12T12:55:12.976Z,6.2
2023-05-12T12:56:22.006Z,7.2
2023-05-12T12:57:29.889Z,7.2
2023-05-12T12:58:38.255Z,7.2
2023-05-12T12:59:46.765Z,5.7
2023-05-12T13:00:55.117Z,5.7
2023-05-12T13:02:03.455Z,5.7
2023-05-12T13:03:12.063Z,8.1
2023-05-12T13:04:20.327Z,8.1
2023-05-12T13:05:28.725Z,8.1
2023-05-12T13:06:37.244Z,6
2023-05-12T13:07:45.581Z,6
2023-05-12T13:08:53.932Z,6
2023-05-12T13:10:02.458Z,5.8
2023-05-12T13:11:10.847Z,5.8
2023-05-12T13:12:19.163Z,5.8
2023-05-12T13:13:27.708Z,5.1
2023-05-12T13:14:36.045Z,5.1
2023-05-12T13:15:44.365Z,5.1
2023-05-12T13:16:52.979Z,5.9
2023-05-12T13:18:01.284Z,5.9
2023-05-12T13:19:09.784Z,5.9
2023-05-12T13:20:18.186Z,7.6
2023-05-12T13:21:26.512Z,7.6
2023-05-12T13:22:34.854Z,7.6
2023-05-12T13:23:43.397Z,7.1
2023-05-12T13:24:51.722Z,7.1
2023-05-12T13:26:00.094Z,7.1
2023-05-12T13:27:08.647Z,6.4
2023-05-12T13:28:16.980Z,6.4
2023-05-12T13:29:25.320Z,6.4
2023-05-12T13:30:33.864Z,4.4
2023-05-12T13:31:42.195Z,4.4
2023-05-12T13:32:50.567Z,4.4
2023-05-12T13:33:59.077Z,5.6
2023-05-12T13:35:07.465Z,5.6
2023-05-12T13:36:15.761Z,5.6
2023-05-12T13:37:24.325Z,7.2
2023-05-12T13:38:32.659Z,7.2
2023-05-12T13:39:41.003Z,7.2
2023-05-12T13:40:49.549Z,6.5
2023-05-12T13:41:57.893Z,6.5
2023-05-12T13:43:06.228Z,6.5
2023-05-12T13:44:14.802Z,4.3
2023-05-12T13:45:23.269Z,4.3
2023-05-12T13:46:31.632Z,4.3
2023-05-12T13:47:40.187Z,7.2
2023-05-12T13:48:48.482Z,7.2
2023-05-12T13:49:56.818Z,7.2
2023-05-12T13:51:05.474Z,5.8
2023-05-12T13:52:13.713Z,5.8
2023-05-12T13:53:22.051Z,5.8
2023-05-12T13:54:30.611Z,5
2023-05-12T13:55:40.550Z,5
2023-05-12T13:56:47.283Z,5
2023-05-12T13:57:55.840Z,5.2
2023-05-12T13:59:04.205Z,5.2
2023-05-12T14:00:12.534Z,5.2
2023-05-12T14:01:21.105Z,4.6
2023-05-12T14:02:29.435Z,4.6
2023-05-12T14:03:37.755Z,4.6
2023-05-12T14:04:46.306Z,3.3
2023-05-12T14:05:54.599Z,3.3
2023-05-12T14:07:02.978Z,3.3
2023-05-12T14:08:11.463Z,6.8
2023-05-12T14:09:19.813Z,6.8
2023-05-12T14:10:28.147Z,6.8
2023-05-12T14:11:36.675Z,4.5
2023-05-12T14:12:45.021Z,4.5
2023-05-12T14:13:53.339Z,4.5
2023-05-12T14:15:19.668Z,4.9
2023-05-12T14:16:10.263Z,4.9
2023-05-12T14:17:18.541Z,4.9
2023-05-12T14:18:27.109Z,4.1
2023-05-12T14:19:35.479Z,4.1
2023-05-12T14:20:43.803Z,4.1
2023-05-12T14:21:52.346Z,3.5
2023-05-12T14:23:00.703Z,3.5
2023-05-12T14:24:08.982Z,3.5
2023-05-12T14:25:17.499Z,5.6
2023-05-12T14:26:25.829Z,5.6
2023-05-12T14:27:34.171Z,5.6
2023-05-12T14:28:42.783Z,5.7
2023-05-12T14:29:51.046Z,5.7
2023-05-12T14:30:59.340Z,5.7
2023-05-12T14:32:08.031Z,6.7
2023-05-12T14:33:16.281Z,6.7
2023-05-12T14:34:24.592Z,6.7
2023-05-12T14:35:33.153Z,3.1
2023-05-12T14:36:41.501Z,3.1
2023-05-12T14:37:49.823Z,3.1
2023-05-12T14:38:58.452Z,4.7
2023-05-12T14:40:06.711Z,4.7
2023-05-12T14:41:15.061Z,4.7
2023-05-12T14:42:23.597Z,3.6
2023-05-12T14:43:31.943Z,3.6
2023-05-12T14:44:40.269Z,3.6
2023-05-12T14:45:48.849Z,4.4
2023-05-12T14:46:57.194Z,4.4
2023-05-12T14:48:05.516Z,4.4
2023-05-12T14:49:14.072Z,5.5
2023-05-12T14:50:22.579Z,5.5
2023-05-12T14:51:30.771Z,5.5
2023-05-12T14:52:39.317Z,5.2
2023-05-12T14:53:47.653Z,5.2
2023-05-12T14:54:56.072Z,5.2
2023-05-12T14:56:04.546Z,5
2023-05-12T14:57:12.893Z,5
2023-05-12T14:58:21.226Z,5
2023-05-12T14:59:29.771Z,4.1
2023-05-12T15:00:38.113Z,4.1
2023-05-12T15:01:46.653Z,4.1
2023-05-12T15:02:55.325Z,4.4
2023-05-12T15:04:03.504Z,4.4
2023-05-12T15:05:11.870Z,4.4
2023-05-12T15:06:20.410Z,3.9
2023-05-12T15:07:28.751Z,3.9
2023-05-12T15:08:37.088Z,3.9
2023-05-12T15:09:45.634Z,4.5
2023-05-12T15:10:54.002Z,4.5
2023-05-12T15:12:02.310Z,4.5
2023-05-12T15:45:01.648Z,0
2023-05-12T15:46:09.918Z,0
2023-05-12T15:47:18.257Z,0
2023-05-12T15:48:26.832Z,7.8
2023-05-12T15:49:35.165Z,7.8
2023-05-12T15:50:43.495Z,7.8
2023-05-12T15:51:52.075Z,6.7
2023-05-12T15:53:00.405Z,6.7
2023-05-12T15:54:09.610Z,6.7
2023-05-12T15:55:17.303Z,4.4
2023-05-12T15:56:25.634Z,4.4
2023-05-12T15:57:33.979Z,4.4
2023-05-12T15:58:42.548Z,4.1
2023-05-12T15:59:52.048Z,4.1
2023-05-12T16:00:59.237Z,4.1
2023-05-12T16:02:07.803Z,4.2
2023-05-12T16:03:16.166Z,4.2
2023-05-12T16:04:24.429Z,4.2
2023-05-12T16:05:32.955Z,5.3
2023-05-12T16:06:41.305Z,5.3
2023-05-12T16:07:49.642Z,5.3
2023-05-12T16:08:58.182Z,4.9
2023-05-12T16:10:06.536Z,4.9
2023-05-12T16:11:14.866Z,4.9
2023-05-12T16:12:23.417Z,4.1
2023-05-12T16:13:31.777Z,4.1
2023-05-12T16:14:40.125Z,4.1
2023-05-12T16:15:48.679Z,9.4
2023-05-12T16:16:57.074Z,9.4
2023-05-12T16:18:07.017Z,9.4
2023-05-12T16:19:13.907Z,95.300003